Big Bear Station Historical Data
Daily Summary for October 2, 2017 Units:  English    Metric   Both
« Previous Day
Next Day »
Daily Weekly Monthly Yearly Custom
  High: Low: Average:
Temperature: 67.1 °F 36.5 °F 49.9 °F
Dew Point: 48.3 °F 12.1 °F 30.9 °F
Humidity: 86 % 20 % 51 %
Wind Speed: 7.3 mph 0.0 mph 1.6 mph
Wind Gust: -999.0 mph - -
Wind:- - WSW
Pressure: 29.97 in 29.92 in -
Precipitation: 0.00 in    
Historical Graphs
 
 
Tabular Data for October 2, 2017
Time Temperature Dew Point Pressure Wind Wind Speed Wind Gust Humidity Rainfall Rate (Hourly)
00:03 49.5 °F 27.9 °F 29.94 in SSE 2.7 mph -999.0 mph 43 % 0 in
00:18 48.6 °F 28.2 °F 29.94 in SSE 1.1 mph -999.0 mph 45 % 0 in
00:33 48.0 °F 29.2 °F 29.93 in SSE 2.2 mph -999.0 mph 48 % 0 in
00:49 47.8 °F 29.6 °F 29.93 in Calm   -999.0 mph 49 % 0 in
01:04 47.3 °F 27.6 °F 29.93 in SSE 1.7 mph -999.0 mph 46 % 0 in
01:19 47.1 °F 26.8 °F 29.93 in SSE 2.2 mph -999.0 mph 45 % 0 in
01:34 46.8 °F 27.1 °F 29.93 in South 1.7 mph -999.0 mph 46 % 0 in
01:49 46.6 °F 25.8 °F 29.92 in Calm   -999.0 mph 44 % 0 in
02:05 46.9 °F 26.1 °F 29.93 in SSW 3.2 mph -999.0 mph 44 % 0 in
02:20 47.1 °F 25.7 °F 29.93 in Calm   -999.0 mph 43 % 0 in
02:35 47.1 °F 25.7 °F 29.93 in SSE 2.2 mph -999.0 mph 43 % 0 in
02:50 47.1 °F 23.4 °F 29.93 in SSW 2.2 mph -999.0 mph 39 % 0 in
03:05 46.0 °F 22.4 °F 29.93 in WNW 3.7 mph -999.0 mph 39 % 0 in
03:21 46.6 °F 21.7 °F 29.93 in SSE 2.2 mph -999.0 mph 37 % 0 in
03:36 46.9 °F 17.8 °F 29.92 in SSE 7.3 mph -999.0 mph 31 % 0 in
03:51 45.7 °F 20.9 °F 29.93 in South 4.2 mph -999.0 mph 37 % 0 in
04:07 47.1 °F 12.1 °F 29.92 in NW 5.3 mph -999.0 mph 24 % 0 in
04:22 46.4 °F 12.4 °F 29.92 in ESE 2.2 mph -999.0 mph 25 % 0 in
04:37 45.9 °F 13.8 °F 29.93 in Calm   -999.0 mph 27 % 0 in
04:52 45.5 °F 15.8 °F 29.94 in West 1.7 mph -999.0 mph 30 % 0 in
05:07 44.1 °F 16.1 °F 29.94 in South 2.7 mph -999.0 mph 32 % 0 in
05:23 43.0 °F 16.5 °F 29.94 in Calm   -999.0 mph 34 % 0 in
05:53 41.4 °F 17.1 °F 29.94 in Calm   -999.0 mph 37 % 0 in
06:08 40.6 °F 17.0 °F 29.94 in South 1.1 mph -999.0 mph 38 % 0 in
06:24 39.6 °F 16.7 °F 29.94 in Calm   -999.0 mph 39 % 0 in
06:39 38.3 °F 16.1 °F 29.94 in Calm   -999.0 mph 40 % 0 in
06:54 37.6 °F 17.1 °F 29.94 in South 1.7 mph -999.0 mph 43 % 0 in
07:09 37.4 °F 19.5 °F 29.95 in Calm   -999.0 mph 48 % 0 in
07:24 37.0 °F 21.4 °F 29.95 in Calm   -999.0 mph 53 % 0 in
07:40 36.5 °F 20.5 °F 29.95 in Calm   -999.0 mph 52 % 0 in
07:55 36.9 °F 23.1 °F 29.96 in Calm   -999.0 mph 57 % 0 in
08:11 37.6 °F 25.0 °F 29.96 in Calm   -999.0 mph 60 % 0 in
08:26 38.5 °F 28.9 °F 29.96 in Calm   -999.0 mph 68 % 0 in
08:41 39.6 °F 29.2 °F 29.96 in Calm   -999.0 mph 66 % 0 in
08:56 41.0 °F 31.2 °F 29.96 in Calm   -999.0 mph 68 % 0 in
09:11 43.9 °F 32.9 °F 29.96 in Calm   -999.0 mph 65 % 0 in
09:27 45.5 °F 31.1 °F 29.96 in Calm   -999.0 mph 57 % 0 in
09:42 48.7 °F 30.9 °F 29.96 in NW 2.7 mph -999.0 mph 50 % 0 in
09:57 51.1 °F 27.6 °F 29.96 in Calm   -999.0 mph 40 % 0 in
10:12 52.3 °F 22.5 °F 29.97 in NW 2.2 mph -999.0 mph 31 % 0 in
10:28 54.7 °F 26.9 °F 29.96 in Calm   -999.0 mph 34 % 0 in
10:43 59.5 °F 22.7 °F 29.96 in NW 3.2 mph -999.0 mph 24 % 0 in
10:59 63.0 °F 27.6 °F 29.96 in WNW 3.2 mph -999.0 mph 26 % 0 in
11:14 63.1 °F 32.8 °F 29.97 in NNW 3.7 mph -999.0 mph 32 % 0 in
11:29 62.8 °F 32.5 °F 29.97 in NW 4.2 mph -999.0 mph 32 % 0 in
11:44 63.9 °F 34.2 °F 29.97 in NE 2.2 mph -999.0 mph 33 % 0 in
12:00 63.7 °F 36.2 °F 29.97 in NW 3.7 mph -999.0 mph 36 % 0 in
12:15 64.0 °F 31.9 °F 29.97 in West 4.7 mph -999.0 mph 30 % 0 in
12:30 64.2 °F 36.7 °F 29.97 in NW 4.7 mph -999.0 mph 36 % 0 in
12:45 64.9 °F 35.1 °F 29.97 in North 3.7 mph -999.0 mph 33 % 0 in
13:01 66.2 °F 33.0 °F 29.97 in NW 1.1 mph -999.0 mph 29 % 0 in
13:16 66.6 °F 24.3 °F 29.96 in NNW 1.7 mph -999.0 mph 20 % 0 in
13:31 66.2 °F 31.2 °F 29.96 in WNW 3.7 mph -999.0 mph 27 % 0 in
13:46 65.7 °F 33.4 °F 29.96 in NW 4.2 mph -999.0 mph 30 % 0 in
14:02 67.1 °F 31.1 °F 29.96 in North 3.2 mph -999.0 mph 26 % 0 in
14:17 64.0 °F 34.3 °F 29.96 in NW 3.2 mph -999.0 mph 33 % 0 in
14:32 65.5 °F 34.9 °F 29.95 in NW 4.2 mph -999.0 mph 32 % 0 in
14:47 64.8 °F 37.9 °F 29.95 in NW 6.3 mph -999.0 mph 37 % 0 in
15:02 63.5 °F 33.1 °F 29.95 in North 4.7 mph -999.0 mph 32 % 0 in
15:18 62.8 °F 41.1 °F 29.95 in NNW 4.7 mph -999.0 mph 45 % 0 in
15:33 61.7 °F 37.1 °F 29.95 in NW 2.2 mph -999.0 mph 40 % 0 in
15:48 62.1 °F 44.3 °F 29.95 in NNW 4.2 mph -999.0 mph 52 % 0 in
16:04 60.6 °F 43.4 °F 29.95 in NW 4.7 mph -999.0 mph 53 % 0 in
16:19 61.3 °F 42.5 °F 29.95 in North 2.7 mph -999.0 mph 50 % 0 in
16:34 59.9 °F 46.0 °F 29.95 in NNE 1.7 mph -999.0 mph 60 % 0 in
16:49 58.3 °F 47.0 °F 29.95 in Calm   -999.0 mph 66 % 0 in
17:05 59.7 °F 48.3 °F 29.95 in North 2.2 mph -999.0 mph 66 % 0 in
17:20 57.0 °F 47.3 °F 29.95 in East 1.7 mph -999.0 mph 70 % 0 in
17:35 55.9 °F 47.0 °F 29.95 in Calm   -999.0 mph 72 % 0 in
17:50 54.5 °F 47.1 °F 29.95 in Calm   -999.0 mph 76 % 0 in
18:06 52.7 °F 46.0 °F 29.95 in Calm   -999.0 mph 78 % 0 in
18:21 50.9 °F 45.3 °F 29.95 in Calm   -999.0 mph 81 % 0 in
18:36 50.4 °F 45.4 °F 29.95 in Calm   -999.0 mph 83 % 0 in
18:51 49.5 °F 44.9 °F 29.96 in Calm   -999.0 mph 84 % 0 in
19:06 48.7 °F 44.4 °F 29.96 in Calm   -999.0 mph 85 % 0 in
19:22 48.0 °F 44.0 °F 29.96 in Calm   -999.0 mph 86 % 0 in
19:37 46.9 °F 42.9 °F 29.96 in Calm   -999.0 mph 86 % 0 in
19:52 46.2 °F 41.9 °F 29.96 in Calm   -999.0 mph 85 % 0 in
20:07 45.3 °F 40.1 °F 29.96 in Calm   -999.0 mph 82 % 0 in
20:22 44.8 °F 39.0 °F 29.97 in Calm   -999.0 mph 80 % 0 in
20:38 44.1 °F 36.7 °F 29.97 in Calm   -999.0 mph 75 % 0 in
20:53 43.3 °F 35.6 °F 29.97 in Calm   -999.0 mph 74 % 0 in
21:08 42.6 °F 32.4 °F 29.97 in Calm   -999.0 mph 67 % 0 in
21:23 42.3 °F 32.1 °F 29.97 in Calm   -999.0 mph 67 % 0 in
21:38 41.9 °F 29.4 °F 29.97 in Calm   -999.0 mph 61 % 0 in
21:54 41.2 °F 31.1 °F 29.97 in Calm   -999.0 mph 67 % 0 in
22:09 41.0 °F 29.8 °F 29.97 in Calm   -999.0 mph 64 % 0 in
22:24 40.6 °F 29.8 °F 29.97 in Calm   -999.0 mph 65 % 0 in
22:39 40.3 °F 31.6 °F 29.97 in Calm   -999.0 mph 71 % 0 in
22:55 39.7 °F 31.4 °F 29.97 in Calm   -999.0 mph 72 % 0 in
23:10 39.4 °F 31.1 °F 29.97 in Calm   -999.0 mph 72 % 0 in
23:25 39.0 °F 32.1 °F 29.97 in Calm   -999.0 mph 76 % 0 in
23:40 38.7 °F 33.4 °F 29.97 in Calm   -999.0 mph 81 % 0 in
23:55 38.5 °F 33.2 °F 29.97 in Calm   -999.0 mph 81 % 0 in
Big Bear CA Weather
Compliments of Weather Underground - 1.5 mb